sensor_id;sensor_type;location;lat;lon;timestamp;pressure;altitude;pressure_sealevel;temperature;humidity
78407;BME280;67692;51.074;-1.790;2023-07-29T00:00:07;100116.34;;;18.63;74.06
78407;BME280;67692;51.074;-1.790;2023-07-29T00:02:34;100115.03;;;18.59;74.19
78407;BME280;67692;51.074;-1.790;2023-07-29T00:05:02;100108.97;;;18.59;74.12
78407;BME280;67692;51.074;-1.790;2023-07-29T00:07:29;100103.25;;;18.55;74.20
78407;BME280;67692;51.074;-1.790;2023-07-29T00:09:56;100106.06;;;18.54;74.23
78407;BME280;67692;51.074;-1.790;2023-07-29T00:12:23;100108.84;;;18.52;73.79
78407;BME280;67692;51.074;-1.790;2023-07-29T00:14:50;100102.28;;;18.56;74.20
78407;BME280;67692;51.074;-1.790;2023-07-29T00:17:17;100108.34;;;18.57;74.22
78407;BME280;67692;51.074;-1.790;2023-07-29T00:19:45;100104.06;;;18.56;74.69
78407;BME280;67692;51.074;-1.790;2023-07-29T00:22:13;100104.88;;;18.56;74.14
78407;BME280;67692;51.074;-1.790;2023-07-29T00:24:40;100107.69;;;18.55;73.59
78407;BME280;67692;51.074;-1.790;2023-07-29T00:27:06;100094.44;;;18.48;74.38
78407;BME280;67692;51.074;-1.790;2023-07-29T00:29:33;100094.75;;;18.53;74.12
78407;BME280;67692;51.074;-1.790;2023-07-29T00:32:00;100098.00;;;18.55;73.80
78407;BME280;67692;51.074;-1.790;2023-07-29T00:34:26;100095.78;;;18.44;74.09
78407;BME280;67692;51.074;-1.790;2023-07-29T00:36:53;100090.34;;;18.46;73.87
78407;BME280;67692;51.074;-1.790;2023-07-29T00:39:21;100096.41;;;18.46;74.42
78407;BME280;67692;51.074;-1.790;2023-07-29T00:41:49;100095.41;;;18.47;74.58
78407;BME280;67692;51.074;-1.790;2023-07-29T00:44:16;100084.13;;;18.47;74.01
78407;BME280;67692;51.074;-1.790;2023-07-29T00:46:45;100096.13;;;18.41;74.40
78407;BME280;67692;51.074;-1.790;2023-07-29T00:49:12;100085.31;;;18.36;74.44
78407;BME280;67692;51.074;-1.790;2023-07-29T00:51:39;100078.75;;;18.40;74.30
78407;BME280;67692;51.074;-1.790;2023-07-29T00:54:05;100071.34;;;18.43;73.88
78407;BME280;67692;51.074;-1.790;2023-07-29T00:56:33;100070.06;;;18.39;74.39
78407;BME280;67692;51.074;-1.790;2023-07-29T00:59:01;100067.44;;;18.39;74.01
78407;BME280;67692;51.074;-1.790;2023-07-29T01:01:28;100068.59;;;18.37;74.20
78407;BME280;67692;51.074;-1.790;2023-07-29T01:03:54;100054.84;;;18.35;74.71
78407;BME280;67692;51.074;-1.790;2023-07-29T01:06:27;100070.91;;;18.32;74.88
78407;BME280;67692;51.074;-1.790;2023-07-29T01:09:01;100068.75;;;18.35;75.05
78407;BME280;67692;51.074;-1.790;2023-07-29T01:11:41;100073.69;;;18.38;74.98
78407;BME280;67692;51.074;-1.790;2023-07-29T01:14:21;100080.41;;;18.33;75.08
78407;BME280;67692;51.074;-1.790;2023-07-29T01:16:56;100073.53;;;18.32;75.39
78407;BME280;67692;51.074;-1.790;2023-07-29T01:19:42;100067.19;;;18.26;75.73
78407;BME280;67692;51.074;-1.790;2023-07-29T01:22:10;100056.91;;;18.17;75.47
78407;BME280;67692;51.074;-1.790;2023-07-29T01:24:38;100059.81;;;18.22;75.73
78407;BME280;67692;51.074;-1.790;2023-07-29T01:27:05;100062.28;;;18.23;76.18
78407;BME280;67692;51.074;-1.790;2023-07-29T01:29:32;100055.38;;;18.22;75.62
78407;BME280;67692;51.074;-1.790;2023-07-29T01:32:04;100051.34;;;18.11;76.01
78407;BME280;67692;51.074;-1.790;2023-07-29T01:34:39;100052.75;;;18.22;76.26
78407;BME280;67692;51.074;-1.790;2023-07-29T01:37:09;100056.06;;;18.24;75.67
78407;BME280;67692;51.074;-1.790;2023-07-29T01:39:42;100055.56;;;18.21;75.39
78407;BME280;67692;51.074;-1.790;2023-07-29T01:42:11;100056.06;;;18.24;75.72
78407;BME280;67692;51.074;-1.790;2023-07-29T01:44:38;100051.81;;;18.23;75.60
78407;BME280;67692;51.074;-1.790;2023-07-29T01:47:07;100057.03;;;18.23;75.33
78407;BME280;67692;51.074;-1.790;2023-07-29T01:49:34;100048.84;;;18.18;75.57
78407;BME280;67692;51.074;-1.790;2023-07-29T01:52:01;100054.25;;;18.25;75.29
78407;BME280;67692;51.074;-1.790;2023-07-29T01:54:28;100051.81;;;18.23;75.31
78407;BME280;67692;51.074;-1.790;2023-07-29T01:56:56;100054.56;;;18.22;75.36
78407;BME280;67692;51.074;-1.790;2023-07-29T01:59:22;100048.22;;;18.16;75.20
78407;BME280;67692;51.074;-1.790;2023-07-29T02:01:49;100047.56;;;18.14;74.86
78407;BME280;67692;51.074;-1.790;2023-07-29T02:04:15;100050.38;;;18.12;75.16
78407;BME280;67692;51.074;-1.790;2023-07-29T02:06:42;100047.41;;;18.16;74.89
78407;BME280;67692;51.074;-1.790;2023-07-29T02:09:09;100040.00;;;18.19;75.12
78407;BME280;67692;51.074;-1.790;2023-07-29T02:11:35;100049.69;;;18.19;74.95
78407;BME280;67692;51.074;-1.790;2023-07-29T02:14:03;100045.25;;;18.19;75.10
78407;BME280;67692;51.074;-1.790;2023-07-29T02:16:30;100058.84;;;18.23;75.00
78407;BME280;67692;51.074;-1.790;2023-07-29T02:18:57;100053.94;;;18.20;74.75
78407;BME280;67692;51.074;-1.790;2023-07-29T02:21:24;100053.28;;;18.18;74.89
78407;BME280;67692;51.074;-1.790;2023-07-29T02:23:51;100054.97;;;18.02;75.68
78407;BME280;67692;51.074;-1.790;2023-07-29T02:26:17;100049.56;;;18.04;75.74
78407;BME280;67692;51.074;-1.790;2023-07-29T02:28:44;100048.91;;;18.10;75.65
78407;BME280;67692;51.074;-1.790;2023-07-29T02:31:15;100046.13;;;18.11;75.39
78407;BME280;67692;51.074;-1.790;2023-07-29T02:33:42;100042.97;;;18.16;75.78
78407;BME280;67692;51.074;-1.790;2023-07-29T02:36:09;100044.97;;;18.14;75.82
78407;BME280;67692;51.074;-1.790;2023-07-29T02:38:35;100044.78;;;18.16;75.49
78407;BME280;67692;51.074;-1.790;2023-07-29T02:41:02;100039.88;;;18.12;75.56
78407;BME280;67692;51.074;-1.790;2023-07-29T02:43:29;100049.69;;;18.19;75.83
78407;BME280;67692;51.074;-1.790;2023-07-29T02:45:55;100042.34;;;18.14;75.71
78407;BME280;67692;51.074;-1.790;2023-07-29T02:48:24;100043.97;;;18.15;75.35
78407;BME280;67692;51.074;-1.790;2023-07-29T02:50:51;100038.56;;;18.17;75.84
78407;BME280;67692;51.074;-1.790;2023-07-29T02:53:17;100037.09;;;18.14;75.63
78407;BME280;67692;51.074;-1.790;2023-07-29T02:55:44;100036.94;;;18.07;75.59
78407;BME280;67692;51.074;-1.790;2023-07-29T02:58:11;100027.16;;;18.01;75.73
78407;BME280;67692;51.074;-1.790;2023-07-29T03:00:37;100029.59;;;18.03;76.00
78407;BME280;67692;51.074;-1.790;2023-07-29T03:03:06;100024.00;;;18.06;75.90
78407;BME280;67692;51.074;-1.790;2023-07-29T03:05:35;100029.94;;;18.00;76.24
78407;BME280;67692;51.074;-1.790;2023-07-29T03:08:03;100021.78;;;17.95;76.22
78407;BME280;67692;51.074;-1.790;2023-07-29T03:10:29;100017.69;;;17.92;76.27
78407;BME280;67692;51.074;-1.790;2023-07-29T03:12:56;100021.28;;;17.91;76.32
78407;BME280;67692;51.074;-1.790;2023-07-29T03:15:23;100028.69;;;17.88;76.59
78407;BME280;67692;51.074;-1.790;2023-07-29T03:17:50;100026.88;;;17.88;76.45
78407;BME280;67692;51.074;-1.790;2023-07-29T03:20:17;100029.84;;;17.85;77.21
78407;BME280;67692;51.074;-1.790;2023-07-29T03:22:45;100019.66;;;17.90;77.39
78407;BME280;67692;51.074;-1.790;2023-07-29T03:25:13;100022.09;;;17.92;77.49
78407;BME280;67692;51.074;-1.790;2023-07-29T03:27:39;100030.50;;;17.79;77.65
78407;BME280;67692;51.074;-1.790;2023-07-29T03:30:06;100020.00;;;17.79;77.77
78407;BME280;67692;51.074;-1.790;2023-07-29T03:32:33;100010.69;;;17.84;77.30
78407;BME280;67692;51.074;-1.790;2023-07-29T03:35:00;100013.13;;;17.86;77.40
78407;BME280;67692;51.074;-1.790;2023-07-29T03:37:26;100021.97;;;17.85;77.13
78407;BME280;67692;51.074;-1.790;2023-07-29T03:39:54;100022.97;;;17.84;77.55
78407;BME280;67692;51.074;-1.790;2023-07-29T03:42:21;100026.69;;;17.90;77.31
78407;BME280;67692;51.074;-1.790;2023-07-29T03:44:48;100024.72;;;17.92;77.15
78407;BME280;67692;51.074;-1.790;2023-07-29T03:47:14;100013.44;;;17.91;76.96
78407;BME280;67692;51.074;-1.790;2023-07-29T03:49:41;100005.63;;;17.83;77.45
78407;BME280;67692;51.074;-1.790;2023-07-29T03:52:07;100012.16;;;17.79;78.33
78407;BME280;67692;51.074;-1.790;2023-07-29T03:54:34;100010.22;;;17.65;78.79
78407;BME280;67692;51.074;-1.790;2023-07-29T03:57:03;100012.53;;;17.60;79.36
78407;BME280;67692;51.074;-1.790;2023-07-29T03:59:29;100029.84;;;17.61;80.16
78407;BME280;67692;51.074;-1.790;2023-07-29T04:01:56;100024.97;;;17.58;80.19
78407;BME280;67692;51.074;-1.790;2023-07-29T04:04:22;100035.56;;;17.64;80.14
78407;BME280;67692;51.074;-1.790;2023-07-29T04:06:49;100038.06;;;17.66;80.37
78407;BME280;67692;51.074;-1.790;2023-07-29T04:09:16;100037.06;;;17.67;79.72
78407;BME280;67692;51.074;-1.790;2023-07-29T04:11:43;100043.63;;;17.71;78.80
78407;BME280;67692;51.074;-1.790;2023-07-29T04:14:11;100043.75;;;17.77;79.36
78407;BME280;67692;51.074;-1.790;2023-07-29T04:16:37;100033.09;;;17.79;80.29
78407;BME280;67692;51.074;-1.790;2023-07-29T04:19:04;100038.03;;;17.82;79.54
78407;BME280;67692;51.074;-1.790;2023-07-29T04:21:30;100027.56;;;17.82;79.54
78407;BME280;67692;51.074;-1.790;2023-07-29T04:23:57;100034.25;;;17.84;79.32
78407;BME280;67692;51.074;-1.790;2023-07-29T04:26:24;100024.78;;;17.83;79.13
78407;BME280;67692;51.074;-1.790;2023-07-29T04:28:50;100030.13;;;17.90;79.81
78407;BME280;67692;51.074;-1.790;2023-07-29T04:31:18;100027.34;;;17.92;79.38
78407;BME280;67692;51.074;-1.790;2023-07-29T04:33:45;100029.78;;;17.93;79.28
78407;BME280;67692;51.074;-1.790;2023-07-29T04:36:11;100027.84;;;17.95;78.88
78407;BME280;67692;51.074;-1.790;2023-07-29T04:38:38;100023.59;;;17.94;79.02
78407;BME280;67692;51.074;-1.790;2023-07-29T04:41:04;100032.41;;;17.93;78.91
78407;BME280;67692;51.074;-1.790;2023-07-29T04:43:32;100037.34;;;17.88;78.94
78407;BME280;67692;51.074;-1.790;2023-07-29T04:45:59;100034.72;;;17.88;79.07
78407;BME280;67692;51.074;-1.790;2023-07-29T04:48:27;100039.97;;;17.88;79.33
78407;BME280;67692;51.074;-1.790;2023-07-29T04:50:54;100038.00;;;17.90;79.38
78407;BME280;67692;51.074;-1.790;2023-07-29T04:53:20;100027.34;;;17.92;79.13
78407;BME280;67692;51.074;-1.790;2023-07-29T04:55:47;100027.16;;;17.93;79.50
78407;BME280;67692;51.074;-1.790;2023-07-29T04:58:14;100030.47;;;17.87;79.46
78407;BME280;67692;51.074;-1.790;2023-07-29T05:00:40;100028.03;;;17.86;79.81
78407;BME280;67692;51.074;-1.790;2023-07-29T05:03:07;100020.34;;;17.84;80.34
78407;BME280;67692;51.074;-1.790;2023-07-29T05:05:35;100024.59;;;17.85;80.48
78407;BME280;67692;51.074;-1.790;2023-07-29T05:08:02;100026.22;;;17.86;80.43
78407;BME280;67692;51.074;-1.790;2023-07-29T05:10:29;100026.41;;;17.84;80.52
78407;BME280;67692;51.074;-1.790;2023-07-29T05:12:55;100027.88;;;17.87;80.38
78407;BME280;67692;51.074;-1.790;2023-07-29T05:15:22;100025.13;;;17.80;80.91
78407;BME280;67692;51.074;-1.790;2023-07-29T05:17:49;100029.19;;;17.83;81.20
78407;BME280;67692;51.074;-1.790;2023-07-29T05:20:15;100036.22;;;17.82;80.97
78407;BME280;67692;51.074;-1.790;2023-07-29T05:22:43;100037.88;;;17.83;80.76
78407;BME280;67692;51.074;-1.790;2023-07-29T05:25:10;100045.22;;;17.88;80.95
78407;BME280;67692;51.074;-1.790;2023-07-29T05:27:37;100049.47;;;17.89;80.75
78407;BME280;67692;51.074;-1.790;2023-07-29T05:30:04;100042.25;;;17.91;80.27
78407;BME280;67692;51.074;-1.790;2023-07-29T05:32:31;100037.00;;;17.91;80.55
78407;BME280;67692;51.074;-1.790;2023-07-29T05:34:58;100037.34;;;17.88;80.48
78407;BME280;67692;51.074;-1.790;2023-07-29T05:37:25;100038.00;;;17.90;81.09
78407;BME280;67692;51.074;-1.790;2023-07-29T05:39:53;100043.09;;;17.83;80.91
78407;BME280;67692;51.074;-1.790;2023-07-29T05:42:19;100030.81;;;17.84;81.41
78407;BME280;67692;51.074;-1.790;2023-07-29T05:44:46;100035.06;;;17.85;80.97
78407;BME280;67692;51.074;-1.790;2023-07-29T05:47:12;100043.09;;;17.83;81.22
78407;BME280;67692;51.074;-1.790;2023-07-29T05:49:40;100039.31;;;17.86;81.07
78407;BME280;67692;51.074;-1.790;2023-07-29T05:52:07;100042.59;;;17.88;80.77
78407;BME280;67692;51.074;-1.790;2023-07-29T05:54:33;100040.78;;;17.89;80.46
78407;BME280;67692;51.074;-1.790;2023-07-29T05:57:01;100043.88;;;17.92;80.77
78407;BME280;67692;51.074;-1.790;2023-07-29T05:59:28;100043.56;;;17.95;81.19
78407;BME280;67692;51.074;-1.790;2023-07-29T06:01:55;100046.81;;;17.97;80.12
78407;BME280;67692;51.074;-1.790;2023-07-29T06:04:22;100046.47;;;18.00;80.33
78407;BME280;67692;51.074;-1.790;2023-07-29T06:06:49;100046.78;;;18.05;81.05
78407;BME280;67692;51.074;-1.790;2023-07-29T06:09:16;100045.47;;;18.09;80.63
78407;BME280;67692;51.074;-1.790;2023-07-29T06:11:42;100053.94;;;18.20;80.68
78407;BME280;67692;51.074;-1.790;2023-07-29T06:14:10;100045.75;;;18.23;80.40
78407;BME280;67692;51.074;-1.790;2023-07-29T06:16:37;100048.84;;;18.26;79.82
78407;BME280;67692;51.074;-1.790;2023-07-29T06:19:03;100040.63;;;18.29;80.25
78407;BME280;67692;51.074;-1.790;2023-07-29T06:21:30;100037.47;;;18.34;79.45
78407;BME280;67692;51.074;-1.790;2023-07-29T06:23:57;100042.91;;;18.32;79.33
78407;BME280;67692;51.074;-1.790;2023-07-29T06:26:23;100045.75;;;18.23;78.91
78407;BME280;67692;51.074;-1.790;2023-07-29T06:28:50;100054.56;;;18.22;79.21
78407;BME280;67692;51.074;-1.790;2023-07-29T06:31:18;100060.47;;;18.24;79.45
78407;BME280;67692;51.074;-1.790;2023-07-29T06:33:45;100058.84;;;18.23;79.01
78407;BME280;67692;51.074;-1.790;2023-07-29T06:36:12;100058.88;;;18.14;79.13
78407;BME280;67692;51.074;-1.790;2023-07-29T06:38:38;100059.88;;;18.13;79.47
78407;BME280;67692;51.074;-1.790;2023-07-29T06:41:06;100075.72;;;18.20;79.71
78407;BME280;67692;51.074;-1.790;2023-07-29T06:43:32;100066.03;;;18.21;79.58
78407;BME280;67692;51.074;-1.790;2023-07-29T06:45:59;100075.22;;;18.25;79.06
78407;BME280;67692;51.074;-1.790;2023-07-29T06:48:27;100067.19;;;18.26;78.90
78407;BME280;67692;51.074;-1.790;2023-07-29T06:50:54;100068.00;;;18.27;79.14
78407;BME280;67692;51.074;-1.790;2023-07-29T06:53:25;100061.47;;;18.23;78.90
78407;BME280;67692;51.074;-1.790;2023-07-29T06:55:52;100062.75;;;18.27;78.52
78407;BME280;67692;51.074;-1.790;2023-07-29T06:58:19;100061.94;;;18.26;77.85
78407;BME280;67692;51.074;-1.790;2023-07-29T07:00:46;100057.50;;;18.27;78.42
78407;BME280;67692;51.074;-1.790;2023-07-29T07:03:13;100063.41;;;18.29;78.15
78407;BME280;67692;51.074;-1.790;2023-07-29T07:05:40;100073.00;;;18.36;77.89
78407;BME280;67692;51.074;-1.790;2023-07-29T07:08:07;100073.50;;;18.40;77.62
78407;BME280;67692;51.074;-1.790;2023-07-29T07:10:34;100068.28;;;18.40;77.53
78407;BME280;67692;51.074;-1.790;2023-07-29T07:13:00;100068.28;;;18.40;76.75
78407;BME280;67692;51.074;-1.790;2023-07-29T07:15:27;100068.91;;;18.42;76.86
78407;BME280;67692;51.074;-1.790;2023-07-29T07:17:54;100069.25;;;18.39;75.93
78407;BME280;67692;51.074;-1.790;2023-07-29T07:20:21;100064.00;;;18.39;75.26
78407;BME280;67692;51.074;-1.790;2023-07-29T07:22:48;100056.16;;;18.39;75.86
78407;BME280;67692;51.074;-1.790;2023-07-29T07:25:15;100066.13;;;18.35;75.49
78407;BME280;67692;51.074;-1.790;2023-07-29T07:27:42;100065.97;;;18.37;75.13
78407;BME280;67692;51.074;-1.790;2023-07-29T07:30:09;100067.28;;;18.41;74.12
78407;BME280;67692;51.074;-1.790;2023-07-29T07:32:36;100067.94;;;18.35;74.00
78407;BME280;67692;51.074;-1.790;2023-07-29T07:35:03;100073.72;;;18.30;74.10
78407;BME280;67692;51.074;-1.790;2023-07-29T07:37:30;100068.94;;;18.34;74.03
78407;BME280;67692;51.074;-1.790;2023-07-29T07:39:58;100073.50;;;18.40;73.47
78407;BME280;67692;51.074;-1.790;2023-07-29T07:42:24;100073.16;;;18.43;73.38
78407;BME280;67692;51.074;-1.790;2023-07-29T07:44:51;100069.66;;;18.51;72.78
78407;BME280;67692;51.074;-1.790;2023-07-29T07:47:18;100072.97;;;18.53;71.95
78407;BME280;67692;51.074;-1.790;2023-07-29T07:49:44;100067.84;;;18.51;72.46
78407;BME280;67692;51.074;-1.790;2023-07-29T07:52:11;100084.38;;;18.60;72.18
78407;BME280;67692;51.074;-1.790;2023-07-29T07:54:38;100078.13;;;18.69;71.72
78407;BME280;67692;51.074;-1.790;2023-07-29T07:57:06;100087.09;;;18.75;71.50
78407;BME280;67692;51.074;-1.790;2023-07-29T07:59:33;100090.03;;;18.80;71.26
78407;BME280;67692;51.074;-1.790;2023-07-29T08:01:59;100097.38;;;18.84;71.81
78407;BME280;67692;51.074;-1.790;2023-07-29T08:04:26;100096.94;;;18.81;71.18
78407;BME280;67692;51.074;-1.790;2023-07-29T08:06:52;100096.41;;;18.85;71.35
78407;BME280;67692;51.074;-1.790;2023-07-29T08:09:19;100106.38;;;18.90;69.94
78407;BME280;67692;51.074;-1.790;2023-07-29T08:11:46;100102.38;;;18.94;70.57
78407;BME280;67692;51.074;-1.790;2023-07-29T08:14:13;100108.97;;;18.90;70.28
78407;BME280;67692;51.074;-1.790;2023-07-29T08:16:40;100106.44;;;18.82;69.94
78407;BME280;67692;51.074;-1.790;2023-07-29T08:19:07;100103.91;;;18.88;70.24
78407;BME280;67692;51.074;-1.790;2023-07-29T08:21:35;100105.53;;;18.89;70.10
78407;BME280;67692;51.074;-1.790;2023-07-29T08:24:01;100102.06;;;18.97;68.94
78407;BME280;67692;51.074;-1.790;2023-07-29T08:26:28;100092.66;;;19.02;69.48
78407;BME280;67692;51.074;-1.790;2023-07-29T08:28:55;100099.91;;;19.00;68.55
78407;BME280;67692;51.074;-1.790;2023-07-29T08:31:23;100114.59;;;18.87;68.68
78407;BME280;67692;51.074;-1.790;2023-07-29T08:33:50;100097.22;;;18.86;67.88
78407;BME280;67692;51.074;-1.790;2023-07-29T08:36:16;100098.84;;;18.87;68.83
78407;BME280;67692;51.074;-1.790;2023-07-29T08:38:43;100109.28;;;18.95;68.65
78407;BME280;67692;51.074;-1.790;2023-07-29T08:41:13;100101.06;;;18.98;68.55
78407;BME280;67692;51.074;-1.790;2023-07-29T08:43:44;100100.41;;;19.19;67.64
78407;BME280;67692;51.074;-1.790;2023-07-29T08:46:11;100098.28;;;19.37;65.38
78407;BME280;67692;51.074;-1.790;2023-07-29T08:48:42;100099.28;;;19.59;66.05
78407;BME280;67692;51.074;-1.790;2023-07-29T08:51:09;100103.50;;;19.68;64.99
78407;BME280;67692;51.074;-1.790;2023-07-29T08:53:37;100097.88;;;19.71;64.24
78407;BME280;67692;51.074;-1.790;2023-07-29T08:56:04;100105.47;;;19.81;65.20
78407;BME280;67692;51.074;-1.790;2023-07-29T08:58:31;100100.31;;;19.87;64.35
78407;BME280;67692;51.074;-1.790;2023-07-29T09:00:59;100102.41;;;19.92;64.47
78407;BME280;67692;51.074;-1.790;2023-07-29T09:03:26;100098.06;;;19.84;64.21
78407;BME280;67692;51.074;-1.790;2023-07-29T09:05:55;100104.38;;;19.75;64.91
78407;BME280;67692;51.074;-1.790;2023-07-29T09:08:23;100102.81;;;19.66;64.70
78407;BME280;67692;51.074;-1.790;2023-07-29T09:10:51;100103.91;;;19.57;65.02
78407;BME280;67692;51.074;-1.790;2023-07-29T09:13:17;100103.66;;;19.44;65.35
78407;BME280;67692;51.074;-1.790;2023-07-29T09:15:45;100112.59;;;19.35;65.76
78407;BME280;67692;51.074;-1.790;2023-07-29T09:18:15;100109.09;;;19.42;65.75
78407;BME280;67692;51.074;-1.790;2023-07-29T09:20:42;100116.91;;;19.50;65.73
78407;BME280;67692;51.074;-1.790;2023-07-29T09:23:10;100112.81;;;19.71;65.38
78407;BME280;67692;51.074;-1.790;2023-07-29T09:25:37;100119.28;;;19.83;64.37
78407;BME280;67692;51.074;-1.790;2023-07-29T09:28:08;100111.66;;;19.88;61.91
78407;BME280;67692;51.074;-1.790;2023-07-29T09:30:35;100102.59;;;19.90;61.52
78407;BME280;67692;51.074;-1.790;2023-07-29T09:33:01;100102.84;;;19.96;61.66
78407;BME280;67692;51.074;-1.790;2023-07-29T09:35:32;100112.03;;;19.85;61.42
78407;BME280;67692;51.074;-1.790;2023-07-29T09:37:59;100107.66;;;19.92;61.67
78407;BME280;67692;51.074;-1.790;2023-07-29T09:40:27;100109.22;;;19.86;63.01
78407;BME280;67692;51.074;-1.790;2023-07-29T09:43:00;100117.53;;;19.90;63.08
78407;BME280;67692;51.074;-1.790;2023-07-29T09:45:27;100109.22;;;19.86;60.92
78407;BME280;67692;51.074;-1.790;2023-07-29T09:47:54;100115.16;;;19.80;61.22
78407;BME280;67692;51.074;-1.790;2023-07-29T09:50:23;100101.22;;;19.95;60.43
78407;BME280;67692;51.074;-1.790;2023-07-29T09:52:51;100105.66;;;20.09;61.67
78407;BME280;67692;51.074;-1.790;2023-07-29T09:55:19;100117.81;;;20.10;59.93
78407;BME280;67692;51.074;-1.790;2023-07-29T09:57:53;100118.81;;;20.09;60.44
78407;BME280;67692;51.074;-1.790;2023-07-29T10:00:20;100117.28;;;20.00;60.93
78407;BME280;67692;51.074;-1.790;2023-07-29T10:02:47;100120.16;;;19.90;62.08
78407;BME280;67692;51.074;-1.790;2023-07-29T10:05:14;100137.19;;;19.79;64.71
78407;BME280;67692;51.074;-1.790;2023-07-29T10:07:41;100136.59;;;19.54;71.86
78407;BME280;67692;51.074;-1.790;2023-07-29T10:10:08;100141.47;;;18.89;70.81
78407;BME280;67692;51.074;-1.790;2023-07-29T10:12:35;100141.19;;;18.76;73.26
78407;BME280;67692;51.074;-1.790;2023-07-29T10:15:05;100142.88;;;18.60;73.42
78407;BME280;67692;51.074;-1.790;2023-07-29T10:17:34;100147.81;;;18.63;75.13
78407;BME280;67692;51.074;-1.790;2023-07-29T10:20:01;100140.91;;;18.62;73.10
78407;BME280;67692;51.074;-1.790;2023-07-29T10:22:36;100145.69;;;18.67;72.23
78407;BME280;67692;51.074;-1.790;2023-07-29T10:25:04;100146.16;;;18.70;71.52
78407;BME280;67692;51.074;-1.790;2023-07-29T10:27:36;100150.72;;;18.77;71.70
78407;BME280;67692;51.074;-1.790;2023-07-29T10:30:07;100147.09;;;18.78;69.85
78407;BME280;67692;51.074;-1.790;2023-07-29T10:32:35;100147.41;;;18.83;70.24
78407;BME280;67692;51.074;-1.790;2023-07-29T10:35:02;100144.72;;;18.91;70.02
78407;BME280;67692;51.074;-1.790;2023-07-29T10:37:29;100146.84;;;18.95;67.58
78407;BME280;67692;51.074;-1.790;2023-07-29T10:39:55;100150.69;;;19.08;69.31
78407;BME280;67692;51.074;-1.790;2023-07-29T10:42:22;100157.34;;;19.18;69.05
78407;BME280;67692;51.074;-1.790;2023-07-29T10:44:50;100163.88;;;19.22;69.62
78407;BME280;67692;51.074;-1.790;2023-07-29T10:47:20;100152.47;;;19.15;68.14
78407;BME280;67692;51.074;-1.790;2023-07-29T10:49:48;100166.94;;;19.11;68.68
78407;BME280;67692;51.074;-1.790;2023-07-29T10:52:16;100172.00;;;19.13;69.66
78407;BME280;67692;51.074;-1.790;2023-07-29T10:54:44;100175.09;;;19.16;68.75
78407;BME280;67692;51.074;-1.790;2023-07-29T10:57:14;100170.88;;;19.07;68.57
78407;BME280;67692;51.074;-1.790;2023-07-29T10:59:53;100179.09;;;19.04;69.26
78407;BME280;67692;51.074;-1.790;2023-07-29T11:02:28;100182.41;;;18.98;67.14
78407;BME280;67692;51.074;-1.790;2023-07-29T11:04:55;100186.31;;;19.02;67.82
78407;BME280;67692;51.074;-1.790;2023-07-29T11:07:23;100175.47;;;19.05;67.80
78407;BME280;67692;51.074;-1.790;2023-07-29T11:09:55;100184.34;;;19.04;68.01
78407;BME280;67692;51.074;-1.790;2023-07-29T11:12:43;100183.66;;;19.10;69.30
78407;BME280;67692;51.074;-1.790;2023-07-29T11:15:19;100185.75;;;19.15;68.45
78407;BME280;67692;51.074;-1.790;2023-07-29T11:17:48;100175.09;;;19.16;67.66
78407;BME280;67692;51.074;-1.790;2023-07-29T11:20:16;100171.81;;;19.14;67.25
78407;BME280;67692;51.074;-1.790;2023-07-29T11:22:43;100178.63;;;19.23;67.36
78407;BME280;67692;51.074;-1.790;2023-07-29T11:25:11;100184.47;;;19.33;68.46
78407;BME280;67692;51.074;-1.790;2023-07-29T11:27:39;100186.06;;;19.43;66.13
78407;BME280;67692;51.074;-1.790;2023-07-29T11:30:07;100178.63;;;19.54;66.43
78407;BME280;67692;51.074;-1.790;2023-07-29T11:32:35;100180.53;;;19.60;64.83
78407;BME280;67692;51.074;-1.790;2023-07-29T11:35:04;100175.75;;;19.64;64.73
78407;BME280;67692;51.074;-1.790;2023-07-29T11:37:32;100170.41;;;19.57;64.84
78407;BME280;67692;51.074;-1.790;2023-07-29T11:39:59;100168.22;;;19.61;65.34
78407;BME280;67692;51.074;-1.790;2023-07-29T11:42:26;100166.59;;;19.60;65.89
78407;BME280;67692;51.074;-1.790;2023-07-29T11:44:53;100154.38;;;19.67;65.48
78407;BME280;67692;51.074;-1.790;2023-07-29T11:47:22;100161.56;;;19.73;65.09
78407;BME280;67692;51.074;-1.790;2023-07-29T11:49:49;100163.47;;;19.79;62.05
78407;BME280;67692;51.074;-1.790;2023-07-29T11:52:17;100172.28;;;19.86;62.48
78407;BME280;67692;51.074;-1.790;2023-07-29T11:54:45;100163.31;;;19.96;59.53
78407;BME280;67692;51.074;-1.790;2023-07-29T11:57:12;100163.47;;;19.94;62.09
78407;BME280;67692;51.074;-1.790;2023-07-29T11:59:39;100174.56;;;20.04;61.51
78407;BME280;67692;51.074;-1.790;2023-07-29T12:02:10;100170.22;;;20.11;61.91
78407;BME280;67692;51.074;-1.790;2023-07-29T12:04:38;100169.06;;;20.14;60.15
78407;BME280;67692;51.074;-1.790;2023-07-29T12:07:05;100159.06;;;20.24;60.01
78407;BME280;67692;51.074;-1.790;2023-07-29T12:09:33;100162.97;;;20.28;59.25
78407;BME280;67692;51.074;-1.790;2023-07-29T12:12:01;100160.34;;;20.28;60.66
78407;BME280;67692;51.074;-1.790;2023-07-29T12:14:28;100160.97;;;20.30;59.02
78407;BME280;67692;51.074;-1.790;2023-07-29T12:16:55;100159.78;;;20.33;57.82
78407;BME280;67692;51.074;-1.790;2023-07-29T12:19:21;100158.63;;;20.35;59.42
78407;BME280;67692;51.074;-1.790;2023-07-29T12:21:50;100154.56;;;20.47;58.35
78407;BME280;67692;51.074;-1.790;2023-07-29T12:24:17;100159.06;;;20.54;59.27
78407;BME280;67692;51.074;-1.790;2023-07-29T12:26:46;100159.34;;;20.73;59.08
78407;BME280;67692;51.074;-1.790;2023-07-29T12:29:14;100153.13;;;20.81;57.64
78407;BME280;67692;51.074;-1.790;2023-07-29T12:31:41;100158.69;;;20.86;56.69
78407;BME280;67692;51.074;-1.790;2023-07-29T12:34:08;100156.03;;;20.86;58.01
78407;BME280;67692;51.074;-1.790;2023-07-29T12:36:42;100160.81;;;20.97;57.13
78407;BME280;67692;51.074;-1.790;2023-07-29T12:39:16;100153.91;;;20.96;55.81
78407;BME280;67692;51.074;-1.790;2023-07-29T12:41:45;100155.53;;;20.97;57.07